createdAt,value
2018-11-12T07:26:28.864Z,22.10
2018-11-12T07:28:59.166Z,22.50
2018-11-12T07:31:30.276Z,21.27
2018-11-12T07:34:00.718Z,21.87
2018-11-12T07:36:31.252Z,19.07
2018-11-12T07:39:01.772Z,20.43
2018-11-12T07:41:32.180Z,20.17
2018-11-12T07:44:02.745Z,19.90
2018-11-12T07:46:33.364Z,18.80
2018-11-12T07:49:04.056Z,18.60
2018-11-12T07:51:34.632Z,19.57
2018-11-12T07:54:05.352Z,19.87
2018-11-12T07:56:36.021Z,20.20
2018-11-12T07:59:07.404Z,19.07
2018-11-12T08:01:37.878Z,17.77
2018-11-12T08:04:08.334Z,19.67
2018-11-12T08:06:38.929Z,18.60
2018-11-12T08:09:10.768Z,17.83
2018-11-12T08:11:41.769Z,17.80
2018-11-12T08:14:12.165Z,19.50
2018-11-12T08:16:42.796Z,17.30
2018-11-12T08:19:13.418Z,18.77
2018-11-12T08:21:43.917Z,17.57
2018-11-12T08:24:14.582Z,17.17
2018-11-12T08:26:44.925Z,16.60
2018-11-12T08:29:15.332Z,16.67
2018-11-12T08:31:45.982Z,17.23
2018-11-12T08:34:16.431Z,16.23
2018-11-12T08:36:47.198Z,15.87
2018-11-12T08:39:17.789Z,16.43
2018-11-12T08:41:48.316Z,15.03
2018-11-12T08:44:18.952Z,15.40
2018-11-12T08:46:49.651Z,16.07
2018-11-12T08:49:20.288Z,14.57
2018-11-12T08:51:50.850Z,15.13
2018-11-12T08:54:21.550Z,15.23
2018-11-12T08:56:52.093Z,14.87
2018-11-12T08:59:22.941Z,15.60
2018-11-12T09:01:53.464Z,13.90
2018-11-12T09:04:24.096Z,14.40
2018-11-12T09:06:54.447Z,14.50
2018-11-12T09:09:25.006Z,14.67
2018-11-12T09:11:55.995Z,14.37
2018-11-12T09:14:26.526Z,14.47
2018-11-12T09:16:58.099Z,14.53
2018-11-12T09:19:28.641Z,13.97
2018-11-12T09:21:59.414Z,13.70
2018-11-12T09:24:29.855Z,13.90
2018-11-12T09:27:00.336Z,13.97
2018-11-12T09:29:30.699Z,13.83
2018-11-12T09:32:01.182Z,13.70
2018-11-12T09:34:31.773Z,12.20
2018-11-12T09:37:02.356Z,13.10
2018-11-12T09:39:32.676Z,12.67
2018-11-12T09:42:03.353Z,11.73
2018-11-12T09:44:33.851Z,12.13
2018-11-12T09:47:04.271Z,12.00
2018-11-12T09:49:34.682Z,11.60
2018-11-12T09:52:05.515Z,12.30
2018-11-12T09:54:36.260Z,12.33
2018-11-12T09:57:06.827Z,11.90
2018-11-12T09:59:37.287Z,12.90
2018-11-12T10:02:08.338Z,12.10
2018-11-12T10:04:39.932Z,11.57
2018-11-12T10:07:10.591Z,11.73
2018-11-12T10:09:42.433Z,10.90
2018-11-12T10:12:13.373Z,11.10
2018-11-12T10:14:44.008Z,11.00
2018-11-12T10:17:15.362Z,11.70
2018-11-12T10:19:42.380Z,11.40
2018-11-12T10:22:12.798Z,11.17
2018-11-12T10:24:43.382Z,11.60
2018-11-12T10:27:14.208Z,11.80
2018-11-12T10:29:45.152Z,12.97
2018-11-12T10:32:15.731Z,11.30
2018-11-12T10:34:46.005Z,11.20
2018-11-12T10:37:16.833Z,11.20
2018-11-12T10:39:47.611Z,9.70
2018-11-12T10:42:18.216Z,10.40
2018-11-12T10:44:48.773Z,10.30
2018-11-12T10:47:19.273Z,9.97
2018-11-12T10:49:49.750Z,9.87
2018-11-12T10:52:20.349Z,9.30
2018-11-12T10:55:04.892Z,13.90
2018-11-12T10:57:21.403Z,7.93
2018-11-12T10:59:51.895Z,9.10
2018-11-12T11:02:31.252Z,7.50
2018-11-12T11:05:02.826Z,7.33
2018-11-12T11:07:33.607Z,7.10
2018-11-12T11:10:04.240Z,6.77
2018-11-12T11:12:34.804Z,6.63
2018-11-12T11:15:05.441Z,6.90
2018-11-12T11:17:36.409Z,6.60
2018-11-12T11:20:06.926Z,6.17
2018-11-12T11:22:37.410Z,8.00
2018-11-12T11:25:07.982Z,5.97
2018-11-12T11:27:38.673Z,6.90
2018-11-12T11:30:11.368Z,5.80
2018-11-12T11:32:42.039Z,6.13
2018-11-12T11:35:13.429Z,6.03
2018-11-12T11:37:43.885Z,6.07
2018-11-12T11:40:19.006Z,6.20
2018-11-12T11:42:49.612Z,5.50
2018-11-12T11:45:20.584Z,5.97
2018-11-12T11:47:51.953Z,6.20
2018-11-12T11:50:24.005Z,6.13
2018-11-12T11:52:54.295Z,5.87
2018-11-12T11:55:25.615Z,5.43
2018-11-12T11:57:56.568Z,5.30
2018-11-12T12:00:28.292Z,5.00
2018-11-12T12:02:59.458Z,5.17
2018-11-12T12:05:30.153Z,4.93
2018-11-12T12:08:00.866Z,4.90
2018-11-12T12:10:31.487Z,5.80
2018-11-12T12:13:01.889Z,4.77
2018-11-12T12:15:32.418Z,4.37
2018-11-12T12:18:03.149Z,4.10
2018-11-12T12:20:33.760Z,4.80
2018-11-12T12:23:05.543Z,4.93
2018-11-12T12:25:42.549Z,4.30
2018-11-12T12:28:13.144Z,4.43
2018-11-12T12:30:43.709Z,4.40
2018-11-12T12:33:14.294Z,4.10
2018-11-12T12:35:44.919Z,4.30
2018-11-12T12:38:15.689Z,4.60
2018-11-12T12:40:46.375Z,4.13
2018-11-12T12:43:16.872Z,4.80
2018-11-12T12:45:47.574Z,4.60
2018-11-12T12:48:17.691Z,5.13
2018-11-12T12:50:48.170Z,4.57
2018-11-12T12:53:18.940Z,4.83
2018-11-12T12:55:49.527Z,4.47
2018-11-12T12:58:20.007Z,4.50
2018-11-12T13:00:50.450Z,4.10
2018-11-12T13:03:20.802Z,4.50
2018-11-12T13:05:51.575Z,4.50
2018-11-12T13:08:22.208Z,4.80
2018-11-12T13:10:52.600Z,4.40
2018-11-12T13:13:23.280Z,4.80
2018-11-12T13:15:53.700Z,4.57
2018-11-12T13:18:24.580Z,4.40
2018-11-12T13:20:54.979Z,4.50
2018-11-12T13:23:25.409Z,4.10
2018-11-12T13:25:55.963Z,3.80
2018-11-12T13:28:26.402Z,4.00
2018-11-12T13:30:57.625Z,4.07
2018-11-12T13:33:31.291Z,4.67
2018-11-12T13:36:02.248Z,3.87
2018-11-12T13:38:32.750Z,4.33
2018-11-12T13:41:03.298Z,4.47
2018-11-12T13:43:33.996Z,4.40
2018-11-12T13:46:04.688Z,3.67
2018-11-12T13:48:35.738Z,4.30
2018-11-12T13:51:06.544Z,5.03
2018-11-12T13:53:37.412Z,4.50
2018-11-12T13:56:08.606Z,4.47
2018-11-12T13:58:39.196Z,4.60
2018-11-12T14:01:09.650Z,4.80
2018-11-12T14:03:40.156Z,4.53
2018-11-12T14:06:10.670Z,4.40
2018-11-12T14:08:41.156Z,5.07
2018-11-12T14:11:11.648Z,6.40
2018-11-12T14:13:42.214Z,4.97
2018-11-12T14:16:12.570Z,5.07
2018-11-12T14:18:43.216Z,4.53
2018-11-12T14:21:13.816Z,4.90
2018-11-12T14:23:44.111Z,5.17
2018-11-12T14:26:14.890Z,4.90
2018-11-12T14:28:48.262Z,4.73
2018-11-12T14:31:18.720Z,5.13
2018-11-12T14:33:49.236Z,5.07
2018-11-12T14:36:25.881Z,5.33
2018-11-12T14:38:56.580Z,4.93
2018-11-12T14:41:27.229Z,4.97
2018-11-12T14:43:57.826Z,5.30
2018-11-12T14:46:28.318Z,4.90
2018-11-12T14:49:01.258Z,4.80
2018-11-12T14:51:31.861Z,4.57
2018-11-12T14:54:02.629Z,4.37
2018-11-12T14:56:33.337Z,4.50
2018-11-12T14:59:03.909Z,4.87
2018-11-12T15:01:34.617Z,4.30
2018-11-12T15:04:05.394Z,4.70
2018-11-12T15:06:35.823Z,4.67
2018-11-12T15:09:09.363Z,4.83
2018-11-12T15:11:40.307Z,4.53
2018-11-12T15:14:11.315Z,5.00
2018-11-12T15:16:41.896Z,4.93
2018-11-12T15:19:12.452Z,5.07
2018-11-12T15:21:43.170Z,5.07
2018-11-12T15:24:13.868Z,5.73
2018-11-12T15:26:44.147Z,6.13
